createdAt,value
2023-04-19T00:00:22.953Z,7.47
2023-04-19T00:02:52.856Z,7.88
2023-04-19T00:05:24.957Z,8.13
2023-04-19T00:07:54.757Z,7.43
2023-04-19T00:10:23.959Z,9.73
2023-04-19T00:12:54.625Z,7.32
2023-04-19T00:15:24.230Z,7.65
2023-04-19T00:17:53.567Z,7.57
2023-04-19T00:20:23.993Z,8.43
2023-04-19T00:22:53.494Z,7.75
2023-04-19T00:25:22.586Z,8.23
2023-04-19T00:27:51.988Z,9.15
2023-04-19T00:30:22.956Z,8.52
2023-04-19T00:32:53.457Z,8.68
2023-04-19T00:35:22.761Z,9.18
2023-04-19T00:37:51.809Z,8.38
2023-04-19T00:40:21.752Z,9.30
2023-04-19T00:42:51.439Z,8.57
2023-04-19T00:45:20.526Z,8.60
2023-04-19T00:47:50.025Z,7.32
2023-04-19T00:50:21.473Z,8.10
2023-04-19T00:52:51.038Z,9.00
2023-04-19T00:55:20.371Z,9.13
2023-04-19T00:57:50.011Z,9.10
2023-04-19T01:00:21.178Z,9.32
2023-04-19T01:02:50.474Z,11.38
2023-04-19T01:05:21.360Z,9.55
2023-04-19T01:07:50.588Z,10.48
2023-04-19T01:10:20.210Z,8.45
2023-04-19T01:12:52.262Z,9.17
2023-04-19T01:15:21.664Z,10.18
2023-04-19T01:17:52.286Z,9.07
2023-04-19T01:20:23.399Z,10.10
2023-04-19T01:22:52.878Z,7.68
2023-04-19T01:25:22.701Z,8.93
2023-04-19T01:27:51.878Z,9.32
2023-04-19T01:30:21.151Z,10.23
2023-04-19T01:32:50.409Z,9.45
2023-04-19T01:35:24.540Z,7.90
2023-04-19T01:37:56.687Z,8.35
2023-04-19T01:40:32.759Z,8.98
2023-04-19T01:43:01.871Z,7.45
2023-04-19T01:45:31.456Z,6.90
2023-04-19T01:48:01.147Z,7.03
2023-04-19T01:50:30.540Z,5.47
2023-04-19T01:53:00.376Z,6.15
2023-04-19T01:55:32.882Z,5.25
2023-04-19T01:58:02.189Z,6.32
2023-04-19T02:00:31.488Z,6.50
2023-04-19T02:03:06.397Z,5.32
2023-04-19T02:05:36.442Z,6.55
2023-04-19T02:08:06.202Z,5.70
2023-04-19T02:10:35.806Z,6.45
2023-04-19T02:13:05.389Z,6.80
2023-04-19T02:15:38.235Z,7.97
2023-04-19T02:18:08.166Z,12.25
2023-04-19T02:20:37.398Z,18.13
2023-04-19T02:23:06.799Z,18.88
2023-04-19T02:25:36.228Z,16.45
2023-04-19T02:28:05.579Z,17.75
2023-04-19T02:30:34.810Z,15.65
2023-04-19T02:33:04.477Z,13.82
2023-04-19T02:35:35.843Z,11.40
2023-04-19T02:38:06.534Z,9.05
2023-04-19T02:40:36.097Z,8.70
2023-04-19T02:43:06.444Z,8.52
2023-04-19T02:45:36.140Z,9.68
2023-04-19T02:48:05.633Z,10.10
2023-04-19T02:50:34.947Z,9.02
2023-04-19T02:53:04.159Z,9.82
2023-04-19T02:55:34.748Z,8.45
2023-04-19T02:58:12.486Z,8.95
2023-04-19T03:00:49.431Z,8.57
2023-04-19T03:05:52.267Z,10.30
2023-04-19T03:08:21.763Z,10.82
2023-04-19T03:10:51.683Z,11.20
2023-04-19T03:13:21.154Z,10.90
2023-04-19T03:15:51.054Z,11.55
2023-04-19T03:18:24.001Z,9.45
2023-04-19T03:20:56.297Z,8.93
2023-04-19T03:23:28.367Z,8.95
2023-04-19T03:26:01.412Z,8.38
2023-04-19T03:28:39.016Z,10.93
2023-04-19T03:31:14.648Z,9.82
2023-04-19T03:33:44.941Z,7.55
2023-04-19T03:36:15.399Z,7.20
2023-04-19T03:38:47.280Z,6.55
2023-04-19T03:41:25.748Z,6.38
2023-04-19T03:44:06.906Z,6.38
2023-04-19T03:46:36.368Z,5.18
2023-04-19T03:49:05.995Z,5.50
2023-04-19T03:51:36.113Z,4.68
2023-04-19T03:54:05.505Z,5.35
2023-04-19T03:56:34.769Z,3.67
2023-04-19T03:59:04.346Z,5.78
2023-04-19T04:01:42.938Z,5.22
2023-04-19T04:04:16.370Z,5.85
2023-04-19T04:06:47.245Z,5.20
2023-04-19T04:09:18.913Z,5.00
2023-04-19T04:11:48.322Z,4.88
2023-04-19T04:14:17.924Z,5.28
2023-04-19T04:16:48.884Z,4.97
2023-04-19T04:19:20.124Z,4.78
2023-04-19T04:21:50.287Z,5.07
2023-04-19T04:24:21.448Z,5.10
2023-04-19T04:27:06.858Z,4.90
2023-04-19T04:29:39.334Z,5.32
2023-04-19T04:32:11.591Z,4.82
2023-04-19T04:34:44.153Z,4.97
2023-04-19T04:37:19.627Z,5.22
2023-04-19T04:39:50.401Z,4.93
2023-04-19T04:42:22.545Z,4.40
2023-04-19T04:44:52.345Z,4.55
2023-04-19T04:47:22.584Z,5.20
2023-04-19T04:49:56.343Z,6.90
2023-04-19T04:52:25.808Z,4.28
2023-04-19T04:55:07.866Z,4.75
2023-04-19T04:57:41.938Z,4.65
2023-04-19T05:00:17.000Z,5.03
2023-04-19T05:02:56.029Z,3.88
2023-04-19T05:05:26.157Z,4.75
2023-04-19T05:07:57.900Z,3.97
2023-04-19T05:10:28.030Z,3.95
2023-04-19T05:12:57.651Z,4.65
2023-04-19T05:15:27.557Z,4.82
2023-04-19T05:17:57.981Z,4.95
2023-04-19T05:20:28.888Z,3.60
2023-04-19T05:23:09.427Z,4.30
2023-04-19T05:25:39.533Z,4.15
2023-04-19T05:28:09.346Z,5.35
2023-04-19T05:30:56.634Z,4.55
2023-04-19T05:33:29.283Z,5.57
2023-04-19T05:35:59.531Z,5.70
2023-04-19T05:38:30.655Z,4.82
2023-04-19T05:41:05.549Z,7.97
2023-04-19T05:43:35.130Z,6.07
2023-04-19T05:46:05.247Z,5.30
2023-04-19T05:49:07.161Z,4.47
2023-04-19T05:51:40.640Z,3.60
2023-04-19T05:54:18.552Z,4.47
2023-04-19T05:56:50.042Z,3.75
2023-04-19T05:59:19.943Z,4.80
2023-04-19T06:01:49.295Z,4.28
2023-04-19T06:04:19.811Z,5.28
2023-04-19T06:06:49.648Z,6.07
2023-04-19T06:09:21.829Z,6.18
2023-04-19T06:11:52.089Z,6.00
2023-04-19T06:14:22.014Z,7.13
2023-04-19T06:16:52.015Z,6.80
2023-04-19T06:19:22.996Z,4.25
2023-04-19T06:21:52.350Z,3.83
2023-04-19T06:28:00.306Z,4.68
2023-04-19T06:30:29.857Z,4.60
2023-04-19T06:33:00.349Z,7.32
2023-04-19T06:35:29.671Z,7.88
2023-04-19T06:37:59.189Z,7.03
2023-04-19T06:40:30.394Z,8.77
2023-04-19T06:42:59.934Z,8.75
2023-04-19T06:45:30.498Z,8.85
2023-04-19T06:48:00.411Z,8.13
2023-04-19T06:50:29.942Z,7.30
2023-04-19T06:52:59.575Z,6.07
2023-04-19T06:55:29.015Z,5.00
2023-04-19T06:57:58.411Z,4.72
2023-04-19T07:00:27.928Z,4.57
2023-04-19T07:02:58.000Z,5.07
2023-04-19T07:05:28.054Z,4.53
2023-04-19T07:07:58.019Z,6.10
2023-04-19T07:10:28.117Z,5.93
2023-04-19T07:12:57.649Z,6.22
2023-04-19T07:15:27.173Z,6.28
2023-04-19T07:17:56.820Z,8.10
2023-04-19T07:20:26.782Z,6.13
2023-04-19T07:22:56.102Z,5.95
2023-04-19T07:25:25.487Z,5.65
2023-04-19T07:41:50.639Z,4.70
2023-04-19T07:44:21.066Z,5.07
2023-04-19T07:46:50.519Z,4.35
2023-04-19T07:49:34.532Z,4.90
2023-04-19T07:52:04.583Z,5.13
2023-04-19T07:57:33.510Z,5.28
2023-04-19T08:06:32.642Z,4.75
2023-04-19T08:09:02.776Z,4.10
2023-04-19T08:11:32.127Z,5.40
2023-04-19T08:14:11.978Z,5.75
2023-04-19T08:19:21.754Z,4.70
2023-04-19T08:21:54.977Z,4.05
2023-04-19T08:24:25.196Z,6.65
2023-04-19T08:26:56.326Z,4.22
2023-04-19T08:29:27.067Z,5.37
2023-04-19T08:31:57.281Z,4.35
2023-04-19T08:34:26.801Z,5.55
2023-04-19T08:37:03.340Z,5.20
2023-04-19T08:39:34.377Z,5.15
2023-04-19T08:42:18.110Z,6.03
2023-04-19T08:47:33.544Z,5.85
2023-04-19T08:50:24.134Z,4.93
2023-04-19T08:53:15.720Z,5.03
2023-04-19T08:56:10.588Z,5.40
2023-04-19T08:59:00.426Z,4.90
2023-04-19T09:01:35.843Z,4.93
2023-04-19T09:06:42.680Z,5.85
2023-04-19T09:27:45.396Z,4.45
2023-04-19T09:30:29.978Z,4.45
2023-04-19T09:33:03.778Z,5.00
2023-04-19T09:35:51.046Z,4.88
2023-04-19T09:38:24.164Z,5.53
2023-04-19T09:40:57.022Z,6.28
2023-04-19T09:43:57.546Z,6.53
2023-04-19T09:46:52.454Z,8.10
2023-04-19T09:50:23.809Z,6.85
2023-04-19T09:52:57.608Z,7.20
2023-04-19T09:56:02.761Z,8.10
2023-04-19T09:58:49.951Z,8.95
2023-04-19T10:01:26.061Z,7.65
2023-04-19T10:09:28.454Z,7.18
2023-04-19T10:12:16.114Z,8.02
2023-04-19T10:15:00.797Z,7.68
2023-04-19T10:17:35.136Z,7.07
2023-04-19T10:20:13.531Z,7.55
2023-04-19T10:22:44.261Z,7.72
2023-04-19T10:25:18.914Z,7.28
2023-04-19T10:27:57.559Z,7.50
2023-04-19T10:30:31.825Z,7.45
2023-04-19T10:33:09.080Z,8.63
2023-04-19T10:35:41.118Z,8.85
2023-04-19T10:38:19.608Z,8.70
2023-04-19T10:40:57.673Z,8.93
2023-04-19T10:43:31.251Z,8.63
2023-04-19T10:46:38.002Z,8.23
2023-04-19T10:49:12.384Z,7.03
2023-04-19T10:57:12.685Z,7.68
2023-04-19T10:59:45.413Z,5.72
2023-04-19T11:02:33.665Z,5.43
2023-04-19T11:18:36.149Z,7.30
2023-04-19T11:21:06.528Z,7.30
2023-04-19T11:23:38.574Z,7.93
2023-04-19T11:26:44.938Z,7.07
2023-04-19T11:33:46.625Z,7.15
2023-04-19T11:36:16.410Z,7.10
2023-04-19T11:42:23.263Z,7.80
2023-04-19T11:44:58.893Z,7.10
2023-04-19T11:47:29.899Z,7.43
2023-04-19T11:51:17.626Z,7.10
2023-04-19T11:54:19.626Z,7.90
2023-04-19T11:57:00.558Z,8.02
2023-04-19T11:59:31.345Z,8.88
2023-04-19T12:02:08.908Z,8.52
2023-04-19T12:04:40.368Z,9.20
2023-04-19T12:07:12.361Z,8.20
2023-04-19T12:09:42.673Z,8.25
2023-04-19T12:12:11.882Z,7.68
2023-04-19T12:15:13.693Z,6.28
2023-04-19T12:18:05.606Z,6.57
2023-04-19T12:20:39.944Z,7.30
2023-04-19T12:23:17.558Z,7.10
2023-04-19T12:25:51.184Z,6.95
2023-04-19T12:28:20.786Z,9.35
2023-04-19T12:30:50.717Z,10.30
2023-04-19T12:33:20.804Z,8.98
2023-04-19T12:35:51.669Z,10.93
2023-04-19T12:38:21.064Z,9.60
2023-04-19T12:40:50.876Z,8.20
2023-04-19T12:43:20.591Z,8.02
2023-04-19T12:45:50.428Z,7.40
2023-04-19T12:48:19.682Z,7.10
2023-04-19T12:50:49.969Z,6.38
2023-04-19T12:53:19.602Z,6.32
2023-04-19T12:55:50.315Z,8.02
2023-04-19T12:58:20.134Z,6.70
2023-04-19T13:01:21.469Z,5.22
2023-04-19T13:03:52.056Z,5.00
2023-04-19T13:06:22.040Z,5.38
2023-04-19T13:08:52.998Z,4.50
2023-04-19T13:11:24.422Z,5.25
2023-04-19T13:13:56.413Z,5.30
2023-04-19T13:16:26.699Z,5.78
2023-04-19T13:18:56.726Z,4.88
2023-04-19T13:21:26.520Z,5.13
2023-04-19T13:23:56.038Z,5.15
2023-04-19T13:26:25.247Z,5.55
2023-04-19T13:29:26.914Z,5.13
2023-04-19T13:31:56.804Z,6.70
2023-04-19T13:34:33.215Z,4.78
2023-04-19T13:37:02.657Z,4.15
2023-04-19T13:39:33.173Z,3.67
2023-04-19T13:42:03.431Z,3.55
2023-04-19T13:44:33.346Z,3.60
2023-04-19T13:47:02.970Z,3.42
2023-04-19T13:49:32.654Z,3.50
2023-04-19T13:52:02.110Z,2.90
2023-04-19T13:54:32.294Z,3.20
2023-04-19T13:57:02.434Z,3.13
2023-04-19T13:59:31.895Z,3.03
2023-04-19T14:02:01.892Z,3.78
2023-04-19T14:04:31.933Z,3.55
2023-04-19T14:07:01.777Z,3.33
2023-04-19T14:09:32.110Z,3.78
2023-04-19T14:12:03.003Z,4.05
2023-04-19T14:14:33.078Z,3.58
2023-04-19T14:17:02.964Z,3.92
2023-04-19T14:19:33.123Z,3.65
2023-04-19T14:22:03.229Z,4.32
2023-04-19T14:24:32.706Z,6.22
2023-04-19T14:29:35.300Z,5.55
2023-04-19T14:32:17.181Z,6.65
2023-04-19T14:34:54.769Z,5.85
2023-04-19T14:37:25.447Z,7.28
2023-04-19T14:39:56.752Z,7.45
2023-04-19T14:42:26.377Z,8.90
2023-04-19T14:44:57.575Z,8.45
2023-04-19T14:47:27.392Z,8.57
2023-04-19T14:49:57.021Z,9.68
2023-04-19T14:52:26.999Z,9.00
2023-04-19T14:54:56.520Z,9.63
2023-04-19T14:57:26.860Z,8.55
2023-04-19T15:00:03.224Z,7.95
2023-04-19T15:02:33.143Z,8.15
2023-04-19T15:05:02.534Z,7.93
2023-04-19T15:07:32.150Z,8.07
2023-04-19T15:10:02.091Z,9.02
2023-04-19T15:12:32.962Z,9.13
2023-04-19T15:15:03.207Z,9.40
2023-04-19T15:17:33.810Z,10.68
2023-04-19T15:20:03.766Z,11.43
2023-04-19T15:22:34.945Z,12.18
2023-04-19T15:25:05.016Z,11.05
2023-04-19T15:27:35.478Z,10.25
2023-04-19T15:30:06.275Z,9.48
2023-04-19T15:32:37.749Z,9.25
2023-04-19T15:35:15.072Z,9.68
2023-04-19T15:37:44.958Z,8.68
2023-04-19T15:40:15.855Z,8.80
2023-04-19T15:42:46.294Z,9.00
2023-04-19T15:45:18.161Z,8.13
2023-04-19T15:47:48.085Z,8.30
2023-04-19T15:50:17.818Z,9.02
2023-04-19T15:52:48.400Z,7.82
2023-04-19T15:55:18.830Z,8.80
2023-04-19T15:57:51.098Z,7.72
2023-04-19T16:00:20.984Z,8.20
2023-04-19T16:02:51.430Z,7.93
2023-04-19T16:05:21.847Z,7.63
2023-04-19T16:08:13.180Z,7.85
2023-04-19T16:10:43.365Z,8.20
2023-04-19T16:13:16.504Z,8.55
2023-04-19T16:15:47.285Z,9.32
2023-04-19T16:18:17.321Z,9.40
2023-04-19T16:20:46.859Z,9.02
2023-04-19T16:23:19.951Z,10.20
2023-04-19T16:25:49.751Z,9.48
2023-04-19T16:28:21.832Z,11.27
2023-04-19T16:30:51.422Z,10.77
2023-04-19T16:33:21.308Z,9.52
2023-04-19T16:35:52.085Z,9.75
2023-04-19T16:38:21.772Z,9.30
2023-04-19T16:40:52.658Z,9.68
2023-04-19T16:43:23.370Z,9.60
2023-04-19T16:45:53.467Z,10.07
2023-04-19T16:48:23.600Z,9.27
2023-04-19T16:50:53.082Z,9.68
2023-04-19T16:53:22.663Z,10.35
2023-04-19T16:55:53.148Z,9.55
2023-04-19T16:58:24.521Z,9.10
2023-04-19T17:00:53.699Z,9.80
2023-04-19T17:03:23.195Z,11.32
2023-04-19T17:05:53.223Z,12.82
2023-04-19T17:08:23.337Z,13.77
2023-04-19T17:10:53.254Z,13.25
2023-04-19T17:13:22.855Z,12.23
2023-04-19T17:15:54.159Z,14.05
2023-04-19T17:18:24.157Z,14.48
2023-04-19T17:20:53.642Z,14.18
2023-04-19T17:23:23.243Z,13.95
2023-04-19T17:25:53.625Z,14.18
2023-04-19T17:28:23.631Z,13.55
2023-04-19T17:30:54.816Z,14.82
2023-04-19T17:33:25.988Z,15.47
2023-04-19T17:35:55.586Z,14.70
2023-04-19T17:38:24.754Z,15.65
2023-04-19T17:40:54.992Z,14.82
2023-04-19T17:43:25.938Z,13.30
2023-04-19T17:45:56.353Z,12.30
2023-04-19T17:48:25.722Z,12.80
2023-04-19T17:50:55.234Z,10.57
2023-04-19T17:53:24.857Z,10.43
2023-04-19T17:55:54.717Z,11.57
2023-04-19T17:58:23.901Z,11.25
2023-04-19T18:00:53.610Z,12.13
2023-04-19T18:03:23.193Z,12.88
2023-04-19T18:05:53.011Z,12.80
2023-04-19T18:08:22.825Z,13.02
2023-04-19T18:10:52.124Z,13.68
2023-04-19T18:13:22.013Z,13.70
2023-04-19T18:15:51.764Z,14.60
2023-04-19T18:18:21.420Z,13.73
2023-04-19T18:20:51.042Z,12.80
2023-04-19T18:23:21.544Z,13.02
2023-04-19T18:25:57.476Z,12.85
2023-04-19T18:28:27.415Z,11.68
2023-04-19T18:30:57.845Z,11.55
2023-04-19T18:33:29.226Z,12.63
2023-04-19T18:35:59.525Z,14.43
2023-04-19T18:38:28.848Z,14.52
2023-04-19T18:40:59.485Z,16.63
2023-04-19T18:43:30.964Z,17.92
2023-04-19T18:46:02.679Z,18.48
2023-04-19T18:48:32.864Z,18.38
2023-04-19T18:51:03.546Z,17.33
2023-04-19T18:53:34.222Z,18.35
2023-04-19T18:56:05.478Z,17.85
2023-04-19T18:58:35.307Z,19.38
2023-04-19T19:02:10.032Z,20.83
2023-04-19T19:04:51.999Z,20.33
2023-04-19T19:07:59.111Z,18.60
2023-04-19T19:13:01.557Z,16.48
2023-04-19T19:15:31.081Z,16.75
2023-04-19T19:18:00.578Z,16.30
2023-04-19T19:20:29.941Z,13.15
2023-04-19T19:22:59.958Z,12.93
2023-04-19T19:25:30.217Z,10.90
2023-04-19T19:30:34.763Z,8.40
2023-04-19T19:33:06.009Z,7.70
2023-04-19T19:35:36.120Z,7.72
2023-04-19T19:38:06.353Z,7.57
2023-04-19T19:40:40.856Z,7.13
2023-04-19T19:43:25.457Z,7.35
2023-04-19T19:45:54.929Z,6.22
2023-04-19T19:48:25.463Z,7.40
2023-04-19T19:51:24.858Z,7.45
2023-04-19T19:53:45.358Z,7.40
2023-04-19T19:56:21.462Z,8.80
2023-04-19T19:58:52.706Z,8.55
2023-04-19T20:01:23.424Z,8.10
2023-04-19T20:03:56.151Z,9.27
2023-04-19T20:07:15.557Z,8.88
2023-04-19T20:09:19.532Z,8.40
2023-04-19T20:11:50.009Z,8.40
2023-04-19T20:14:20.596Z,8.23
2023-04-19T20:16:50.193Z,7.18
2023-04-19T20:19:20.727Z,7.32
2023-04-19T20:21:50.582Z,8.25
2023-04-19T20:24:19.775Z,7.47
2023-04-19T20:26:52.080Z,7.32
2023-04-19T20:29:22.014Z,7.13
2023-04-19T20:31:52.677Z,7.38
2023-04-19T20:34:22.433Z,7.75
2023-04-19T20:36:52.865Z,7.97
2023-04-19T20:39:22.895Z,8.35
2023-04-19T20:41:55.335Z,9.35
2023-04-19T20:44:25.033Z,8.65
2023-04-19T20:46:54.681Z,9.85
2023-04-19T20:49:23.834Z,11.15
2023-04-19T20:51:53.982Z,12.73
2023-04-19T20:54:23.424Z,16.08
2023-04-19T20:56:55.196Z,19.83
2023-04-19T20:59:24.679Z,20.85
2023-04-19T21:01:54.845Z,20.40
2023-04-19T21:04:24.396Z,22.08
2023-04-19T21:06:53.630Z,21.85
2023-04-19T21:09:23.164Z,21.17
2023-04-19T21:11:52.823Z,19.33
2023-04-19T21:14:21.871Z,17.38
2023-04-19T21:17:28.284Z,15.80
2023-04-19T21:19:57.820Z,14.52
2023-04-19T21:22:59.576Z,14.13
2023-04-19T21:25:28.863Z,13.85
2023-04-19T21:42:03.060Z,13.50
2023-04-19T21:44:32.422Z,12.90
2023-04-19T21:47:06.307Z,13.23
2023-04-19T21:50:07.490Z,12.20
2023-04-19T21:57:07.776Z,10.80
2023-04-19T21:59:37.306Z,10.48
2023-04-19T22:51:51.824Z,2.50
2023-04-19T22:54:53.090Z,2.33
2023-04-19T22:57:22.784Z,2.63
2023-04-19T22:59:51.992Z,2.03
2023-04-19T23:06:20.725Z,1.95
2023-04-19T23:08:50.336Z,1.88
2023-04-19T23:11:19.867Z,2.00
2023-04-19T23:41:50.400Z,1.50
2023-04-19T23:44:20.077Z,1.33
2023-04-19T23:46:49.902Z,1.70
2023-04-19T23:49:19.609Z,1.27
2023-04-19T23:51:51.314Z,1.58
2023-04-19T23:54:23.391Z,1.73
2023-04-19T23:56:53.837Z,1.80
2023-04-19T23:59:27.917Z,2.20
